Metar Cercanos

 

LEPA - Palma De Mallorc, Spain
Distance from station: ONO 38km
Actualización: 19/02/2018 02:30
Few Clouds
Few Clouds
 Viento del NE
Viento: NE 2 km/h
Temperatura: 5°C
Rocío: 4°C
Humedad: 93%
Barómetro: 1018 hPa
Clouds: Few Clouds
Visibility: 10 km
Cloud details: Few Clouds 610 m
2018/02/19 01:30 LEPA 190130Z 05001KT 9999 FEW020 05/04 Q1018 NOSIG
LEMH - Mahon/Menorca Is, Spain
Distance from station: ENE 105km
Actualización: 19/02/2018 02:30
Despejado
Despejado
 Viento del NNO
Viento: NNO 6 km/h
Temperatura: 7°C
Rocío: 5°C
Humedad: 87%
Barómetro: 1018 hPa
Resumen: Despejado
Visibility: greater than 10 km
2018/02/19 01:30 LEMH 190130Z AUTO 34003KT CAVOK 07/05 Q1018
 
LEIB - Ibiza/Es Codola, Spain
Distance from station: OSO 165km
Actualización: 19/02/2018 00:00
NOT Current
Muy nuboso
Muy nuboso
 Viento del calm
Viento: Calma
Temperatura: 8°C
Rocío: 7°C
Humedad: 93%
Barómetro: 1020 hPa
Clouds: Muy nuboso
Visibility: 10 km
Cloud details: Few Clouds 457 m
Parcialmente nuboso 610 m
Muy nuboso 1067 m
2018/02/18 23:00 LEIB 182300Z 00000KT 9999 FEW015 SCT020 BKN035 08/07 Q1020 NOSIG
LEBL - Barcelona Airpor, Spain
Distance from station: NNO 225km
Actualización: 19/02/2018 02:30
Few Clouds
Few Clouds
 Viento del NNO
Viento: NNO 11 km/h
Temperatura: 8°C
Sensación frio: 6°C
Rocío: 4°C
Humedad: 76%
Barómetro: 1017 hPa
Clouds: Few Clouds
Visibility: 10 km
Cloud details: Few Clouds 1219 m
2018/02/19 01:30 LEBL 190130Z 33006KT 9999 FEW040 08/04 Q1017 NOSIG
 
LEVC - Valencia (civ/Mi, Spain
Distance from station: NO 188km
Actualización: 19/02/2018 02:30
Despejado
Despejado
 Viento del NO
Viento: NO 7 km/h
Temperatura: 8°C
Sensación frio: 7°C
Rocío: 7°C
Humedad: 93%
Barómetro: 1018 hPa
Resumen: Despejado
Visibility: greater than 10 km
2018/02/19 01:30 LEVC 190130Z 32004KT CAVOK 08/07 Q1018 NOSIG
LEGE - Gerona/Costa Bra, Spain
Distance from station: N 276km
Actualización: 19/02/2018 02:30
Muy nuboso
Muy nuboso
 Viento del ONO
Viento: ONO 2 km/h
Temperatura: 8°C
Rocío: 8°C
Humedad: 100%
Barómetro: 1018 hPa
Clouds: Muy nuboso
Visibility: 10 km
Cloud details: Muy nuboso 1219 m
2018/02/19 01:30 LEGE 190130Z 29001KT 9999 BKN040 08/08 Q1018
 
LEAL - Alicante/El Alte, Spain
Distance from station: OSO 344km
Actualización: 19/02/2018 02:30
Parcialmente nuboso
Parcialmente nuboso
 Viento del O
Viento: O 6 km/h
Temperatura: 9°C
Rocío: 8°C
Humedad: 94%
Barómetro: 1018 hPa
Clouds: Parcialmente nuboso
Visibility: 10 km
Cloud details: Few Clouds 1524 m
Parcialmente nuboso 1798 m
2018/02/19 01:30 LEAL 190130Z 27003KT 9999 FEW050 SCT059 09/08 Q1018 NOSIG
LEAM - Almeria Airport, Spain
Distance from station: SSO 56km
Actualización: 19/02/2018 02:30
Cubierto
Cubierto
 Viento del varies
Viento: varies 4 km/h
Temperatura: 14°C
Rocío: 11°C
Humedad: 82%
Barómetro: 1018 hPa
Clouds: Cubierto
Visibility: 10 km
Cloud details: Muy nuboso 945 m
Cubierto 1372 m
2018/02/19 01:30 LEAM 190130Z AUTO VRB02KT 9999 BKN031/// OVC045/// 14/11 Q1018
 
LEZG - Zaragoza (mil/Ci, Spain
Distance from station: NO 431km
Actualización: 19/02/2018 02:30
Parcialmente nuboso
Parcialmente nuboso
 Viento del O
Viento: O 26 km/h
Temperatura: 10°C
Sensación frio: 7°C
Rocío: 6°C
Humedad: 76%
Barómetro: 1019 hPa
Clouds: Parcialmente nuboso
Visibility: 10 km
Cloud details: Few Clouds 1219 m
Parcialmente nuboso 2591 m
2018/02/19 01:30 LEZG 190130Z 28014KT 9999 FEW040 SCT085 10/06 Q1019
LEMD - Madrid/Barajas, Spain
Distance from station: ONO 234km
Actualización: 19/02/2018 02:30
Few Clouds
Few Clouds
 Viento del NNE
Viento: NNE 2 km/h
Temperatura: 8°C
Rocío: 3°C
Humedad: 71%
Barómetro: 1020 hPa
Clouds: Few Clouds
Visibility: 10 km
Cloud details: Few Clouds 2134 m
2018/02/19 01:30 LEMD 190130Z 03001KT 9999 FEW070 08/03 Q1020 NOSIG
 
LEGR - Granada Airport, Spain
Distance from station: OSO 62km
Actualización: 19/02/2018 02:30
Cubierto
Cubierto
 Viento del calm
Viento: Calma
Temperatura: 8°C
Rocío: 6°C
Humedad: 87%
Barómetro: 1017 hPa
Clouds: Cubierto
Visibility: 10 km
Cloud details: Muy nuboso 1737 m
Cubierto 2134 m
2018/02/19 01:30 LEGR 190130Z AUTO 00000KT 9999 BKN057 OVC070 08/06 Q1017
LEMG - Malaga (civ/Mil), Spain
Distance from station: OSO 227km
Actualización: 19/02/2018 02:30
Lluvia débil, Mist, Muy nuboso
Lluvia débil, Mist, Muy nuboso
 Viento del NNO
Viento: NNO 6 km/h
Temperatura: 12°C
Rocío: 11°C
Humedad: 94%
Barómetro: 1018 hPa
Resumen: Lluvia débil, Mist
Clouds: Muy nuboso
Visibility: 4 km
Cloud details: Muy nuboso 549 m
Muy nuboso 792 m
2018/02/19 01:30 LEMG 190130Z 33003KT 290V010 4000 -RA BR BKN018 BKN026 12/11 Q1018 NOSIG
 
LEZL - Sevilla (civ/Mil, Spain
Distance from station: S 318km
Actualización: 19/02/2018 02:30
Despejado
Despejado
 Viento del varies
Viento: varies 2 km/h
Temperatura: 8°C
Rocío: 7°C
Humedad: 93%
Barómetro: 1018 hPa
Clouds: Despejado
Visibility: 7 km
2018/02/19 01:30 LEZL 190130Z AUTO VRB01KT 7000 NCD 08/07 Q1018
LEVT - Vitoria, Spain
Distance from station: NO 226km
Actualización: 19/02/2018 02:30
Muy nuboso
Muy nuboso
 Viento del ONO
Viento: ONO 13 km/h
Temperatura: 7°C
Sensación frio: 5°C
Rocío: 6°C
Humedad: 93%
Barómetro: 1021 hPa
Clouds: Muy nuboso
Visibility: 10 km
Cloud details: Parcialmente nuboso 457 m
Muy nuboso 1067 m
2018/02/19 01:30 LEVT 190130Z 30007KT 9999 SCT015 BKN035 07/06 Q1021
 
LEBB - Bilbao/Sondica, Spain
Distance from station: NNO 235km
Actualización: 19/02/2018 02:30
Lluvia, Muy nuboso
Lluvia, Muy nuboso
 Viento del O
Viento: O 6 km/h
Temperatura: 11°C
Rocío: 10°C
Humedad: 94%
Barómetro: 1022 hPa
Resumen: Lluvia
Clouds: Muy nuboso
Visibility: 10 km
Cloud details: Few Clouds 274 m
Muy nuboso 396 m
2018/02/19 01:30 LEBB 190130Z AUTO 28003KT 230V320 9999 RA FEW009/// BKN013/// 11/10 Q1022
LESO - San Sebastian/Fu, Spain
Distance from station: N 231km
Actualización: 19/02/2018 02:30
Muy nuboso
Muy nuboso
 Viento del ONO
Viento: ONO 17 km/h
Temperatura: 12°C
Rocío: 10°C
Humedad: 88%
Barómetro: 1021 hPa
Clouds: Muy nuboso
Visibility: 9 km
Cloud details: Parcialmente nuboso 396 m
Muy nuboso 762 m
Muy nuboso 1494 m
2018/02/19 01:30 LESO 190130Z AUTO 30009KT 260V010 9000 SCT013/// BKN025/// BKN049/// 12/10 Q1021
 
LEVD - Valladolid(Mil/C, Spain
Distance from station: ONO 239km
Actualización: 18/02/2018 21:30
NOT Current
Few Clouds
Few Clouds
 Viento del ENE
Viento: ENE 9 km/h
Temperatura: 6°C
Sensación frio: 4°C
Rocío: 1°C
Humedad: 71%
Barómetro: 1023 hPa
Clouds: Few Clouds
Visibility: 10 km
Cloud details: Few Clouds 1219 m
2018/02/18 20:30 LEVD 182030Z 07005KT 9999 FEW040 06/01 Q1023
LESA - Salamanca (civ/M, Spain
Distance from station: ONO 349km
Actualización: 18/02/2018 19:00
NOT Current
Despejado
Despejado
 Viento del E
Viento: E 11 km/h
Temperatura: 8°C
Sensación frio: 6°C
Rocío: 1°C
Humedad: 62%
Barómetro: 1023 hPa
Resumen: Despejado
Visibility: greater than 10 km
2018/02/18 18:00 LESA 181800Z 08006KT CAVOK 08/01 Q1023
 
LEXJ - Santander/Paraya, Spain
Distance from station: NNO 247km
Actualización: 19/02/2018 02:30
Lluvia débil, Muy nuboso
Lluvia débil, Muy nuboso
 Viento del O
Viento: O 13 km/h
Temperatura: 11°C
Rocío: 10°C
Humedad: 94%
Barómetro: 1023 hPa
Resumen: Lluvia débil
Clouds: Muy nuboso
Visibility: 6 km
Cloud details: Parcialmente nuboso 274 m
Muy nuboso 457 m
Muy nuboso 762 m
2018/02/19 01:30 LEXJ 190130Z AUTO 28007KT 6000 -RA SCT009/// BKN015/// BKN025/// 11/10 Q1023
LEAS - Asturias/Aviles, Spain
Distance from station: NO 214km
Actualización: 19/02/2018 02:30
Muy nuboso
Muy nuboso
 Viento del O
Viento: O 7 km/h
Temperatura: 9°C
Sensación frio: 8°C
Rocío: 8°C
Humedad: 94%
Barómetro: 1024 hPa
Clouds: Muy nuboso
Visibility: 6 km
Cloud details: Few Clouds 396 m
Parcialmente nuboso 1067 m
Muy nuboso 2316 m
2018/02/19 01:30 LEAS 190130Z AUTO 26004KT 6000 FEW013/// SCT035/// BKN076/// 09/08 Q1024
 
LECO - La Coruna/Alvedr, Spain
Distance from station: ONO 222km
Actualización: 19/02/2018 02:30

 Viento del SSO
Viento: SSO 4 km/h
Visibility: 1 km
2018/02/19 01:30 LECO 190130Z AUTO 20002KT 0800 0300 R21/1600N R03/1000U FG VV001 08/08 Q1024
LEVX - Vigo/Peinador, Spain
Distance from station: O 214km
Actualización: 19/02/2018 02:30
Despejado
Despejado
 Viento del calm
Viento: Calma
Temperatura: 9°C
Rocío: 7°C
Humedad: 87%
Barómetro: 1023 hPa
Resumen: Despejado
Visibility: greater than 10 km
2018/02/19 01:30 LEVX 190130Z 00000KT CAVOK 09/07 Q1023 NOSIG